首页
METAR-TAF:

METAR-TAF

机场 :

Yeovilton, 英格兰

纬度: 51-00N, 经度: 002-38W, 海拔: 23米

当前天气观测

该预报发布于1小时和14分钟前的20:50 UTC
风速12节,风向北转东北
温度 4°C
湿度 56%
气压 1040 hPa
能见度10公里或以上
少量云层高于4000英尺

METAR: EGDY 292050Z 03012KT 9999 FEW040 04/M04 Q1040 BLU

时间: 23:04 (22:04 UTC)

预报

该预报发布于10小时和0分钟前的12:04 UTC
预报有效从29日的 12点(UTC)到 29日的 21点(UTC)
风速23节,风向北转东北
能见度10公里或以上
散云层高于4000英尺
短暂存在
从 29日的 12点(UTC)到 29日的 18点(UTC)
风速25节,风向北转东北,有时为35节阵风

TAF: EGDY 291204Z 2912/2921 03023KT 9999 SCT040 TEMPO 2912/2918 03025G35KT

超过4000个机场的气象观测和天气预报(METAR&TAF报告)。

可查询的气象台以黄色和红色小点在地图上表示。

将鼠标移到小点上方,可查看气象台名称。

然后点击查看天气观测和预报。

如需切换地图:点击带黑十字的绿色按钮放大地图;点击带横线的绿色按钮缩小地图;或者点击绿色箭头查看邻近地区的地图。


METAR-TAF: